createdAt,value
2019-06-08T00:02:26.269Z,0.95
2019-06-08T00:04:56.903Z,1.20
2019-06-08T00:07:27.515Z,1.20
2019-06-08T00:09:58.351Z,1.22
2019-06-08T00:12:28.906Z,1.20
2019-06-08T00:14:59.567Z,1.20
2019-06-08T00:17:38.618Z,1.22
2019-06-08T00:20:03.691Z,1.30
2019-06-08T00:22:35.205Z,1.30
2019-06-08T00:25:06.287Z,1.30
2019-06-08T00:27:37.441Z,1.57
2019-06-08T00:30:09.576Z,1.50
2019-06-08T00:32:41.051Z,1.62
2019-06-08T00:35:12.592Z,1.70
2019-06-08T00:37:43.306Z,1.55
2019-06-08T00:40:14.794Z,1.75
2019-06-08T00:42:45.620Z,1.47
2019-06-08T00:45:17.308Z,1.65
2019-06-08T00:47:48.410Z,1.57
2019-06-08T00:50:20.825Z,1.77
2019-06-08T00:52:51.724Z,1.80
2019-06-08T00:55:23.672Z,1.77
2019-06-08T00:57:54.730Z,1.52
2019-06-08T01:00:26.778Z,1.77
2019-06-08T01:02:57.646Z,1.45
2019-06-08T01:05:28.476Z,2.47
2019-06-08T01:07:59.949Z,1.70
2019-06-08T01:10:30.730Z,1.45
2019-06-08T01:13:01.387Z,1.62
2019-06-08T01:15:34.318Z,1.70
2019-06-08T01:18:04.753Z,2.27
2019-06-08T01:20:35.524Z,1.65
2019-06-08T01:23:06.362Z,1.70
2019-06-08T01:25:37.113Z,1.85
2019-06-08T01:28:08.562Z,1.70
2019-06-08T01:30:39.252Z,2.00
2019-06-08T01:33:11.033Z,1.60
2019-06-08T01:35:41.851Z,1.50
2019-06-08T01:38:12.382Z,1.50
2019-06-08T01:40:42.959Z,1.72
2019-06-08T01:43:13.740Z,2.08
2019-06-08T01:45:44.632Z,1.77
2019-06-08T01:48:19.971Z,1.90
2019-06-08T01:50:47.837Z,1.87
2019-06-08T01:53:18.520Z,1.70
2019-06-08T01:55:49.090Z,1.80
2019-06-08T01:58:20.111Z,1.98
2019-06-08T02:00:50.720Z,1.82
2019-06-08T02:03:22.069Z,2.10
2019-06-08T02:05:52.687Z,2.08
2019-06-08T02:08:24.393Z,1.70
2019-06-08T02:10:55.317Z,1.77
2019-06-08T02:13:26.859Z,1.57
2019-06-08T02:15:57.625Z,2.17
2019-06-08T02:18:40.093Z,1.90
2019-06-08T02:21:00.787Z,1.70
2019-06-08T02:23:31.457Z,1.87
2019-06-08T02:26:02.438Z,1.50
2019-06-08T02:28:33.654Z,1.60
2019-06-08T02:31:06.368Z,1.35
2019-06-08T02:33:37.371Z,1.55
2019-06-08T02:36:09.421Z,1.55
2019-06-08T02:38:40.063Z,1.67
2019-06-08T02:41:10.760Z,1.57
2019-06-08T02:43:41.446Z,1.75
2019-06-08T02:46:12.108Z,1.12
2019-06-08T02:49:02.822Z,1.32
2019-06-08T02:51:15.231Z,1.20
2019-06-08T02:53:46.472Z,1.10
2019-06-08T02:56:18.004Z,1.32
2019-06-08T02:58:51.719Z,1.10
2019-06-08T03:01:23.415Z,1.22
2019-06-08T03:03:56.399Z,1.10
2019-06-08T03:06:30.360Z,0.93
2019-06-08T03:09:05.363Z,1.15
2019-06-08T03:11:38.981Z,0.98
2019-06-08T03:14:09.943Z,1.10
2019-06-08T03:16:41.635Z,1.20
2019-06-08T03:19:21.719Z,1.17
2019-06-08T03:21:45.752Z,1.35
2019-06-08T03:24:16.352Z,1.30
2019-06-08T03:26:47.930Z,1.40
2019-06-08T03:29:18.602Z,1.42
2019-06-08T03:31:55.612Z,1.20
2019-06-08T03:34:22.818Z,1.15
2019-06-08T03:36:57.379Z,1.35
2019-06-08T03:39:28.075Z,1.45
2019-06-08T03:41:58.862Z,1.70
2019-06-08T03:44:29.510Z,1.95
2019-06-08T03:47:00.527Z,1.80
2019-06-08T03:49:42.761Z,1.50
2019-06-08T03:52:04.307Z,2.10
2019-06-08T03:54:36.049Z,1.80
2019-06-08T03:57:07.515Z,1.57
2019-06-08T03:59:38.714Z,2.12
2019-06-08T04:02:10.621Z,2.02
2019-06-08T04:04:41.852Z,1.87
2019-06-08T04:07:12.935Z,2.30
2019-06-08T04:09:45.823Z,2.00
2019-06-08T04:12:18.805Z,2.35
2019-06-08T04:14:50.450Z,2.72
2019-06-08T04:17:21.296Z,2.30
2019-06-08T04:20:09.583Z,3.10
2019-06-08T04:22:24.222Z,2.30
2019-06-08T04:24:54.787Z,2.92
2019-06-08T04:27:25.489Z,2.62
2019-06-08T04:29:55.945Z,2.77
2019-06-08T04:32:26.432Z,2.30
2019-06-08T04:34:57.731Z,2.55
2019-06-08T04:37:29.023Z,2.42
2019-06-08T04:39:59.706Z,1.95
2019-06-08T04:42:30.204Z,2.37
2019-06-08T04:45:00.858Z,2.67
2019-06-08T04:47:33.706Z,2.30
2019-06-08T04:50:21.695Z,2.37
2019-06-08T04:52:40.890Z,2.08
2019-06-08T04:55:11.792Z,2.42
2019-06-08T04:57:43.364Z,2.45
2019-06-08T05:00:15.680Z,2.67
2019-06-08T05:02:48.694Z,2.52
2019-06-08T05:05:18.695Z,1.90
2019-06-08T05:07:50.305Z,2.33
2019-06-08T05:10:21.172Z,2.35
2019-06-08T05:12:53.917Z,2.15
2019-06-08T05:15:25.014Z,2.02
2019-06-08T05:17:55.615Z,2.22
2019-06-08T05:20:38.478Z,1.75
2019-06-08T05:22:58.607Z,1.98
2019-06-08T05:25:29.241Z,1.95
2019-06-08T05:27:59.963Z,1.95
2019-06-08T05:30:30.640Z,2.00
2019-06-08T05:33:03.206Z,2.12
2019-06-08T05:35:33.881Z,1.80
2019-06-08T05:38:06.058Z,2.33
2019-06-08T05:40:36.839Z,2.30
2019-06-08T05:43:07.498Z,2.42
2019-06-08T05:45:39.508Z,2.70
2019-06-08T05:48:10.631Z,2.65
2019-06-08T05:50:56.833Z,2.77
2019-06-08T05:53:13.838Z,2.87
2019-06-08T05:55:44.466Z,2.80
2019-06-08T05:58:15.526Z,2.92
2019-06-08T06:00:46.406Z,2.92
2019-06-08T06:03:17.425Z,3.25
2019-06-08T06:05:48.980Z,2.60
2019-06-08T06:08:20.003Z,2.80
2019-06-08T06:10:51.420Z,2.47
2019-06-08T06:13:22.757Z,2.62
2019-06-08T06:15:53.406Z,2.85
2019-06-08T06:18:27.844Z,2.72
2019-06-08T06:21:10.544Z,3.00
2019-06-08T06:23:30.864Z,2.90
2019-06-08T06:26:02.133Z,3.05
2019-06-08T06:28:33.686Z,2.40
2019-06-08T06:31:04.388Z,3.08
2019-06-08T06:33:35.065Z,2.85
2019-06-08T06:36:05.825Z,2.90
2019-06-08T06:38:38.098Z,2.87
2019-06-08T06:41:08.818Z,2.55
2019-06-08T06:43:39.450Z,3.00
2019-06-08T06:46:10.058Z,2.80
2019-06-08T06:48:41.984Z,3.02
2019-06-08T06:51:25.693Z,3.17
2019-06-08T06:53:46.591Z,3.35
2019-06-08T06:56:17.280Z,3.85
2019-06-08T06:58:49.380Z,3.33
2019-06-08T07:01:20.209Z,3.72
2019-06-08T07:03:52.175Z,4.25
2019-06-08T07:06:22.854Z,4.35
2019-06-08T07:08:54.585Z,3.35
2019-06-08T07:11:25.533Z,3.75
2019-06-08T07:13:56.320Z,3.33
2019-06-08T07:16:27.664Z,4.00
2019-06-08T07:18:58.777Z,2.95
2019-06-08T07:21:41.265Z,3.87
2019-06-08T07:24:01.894Z,3.55
2019-06-08T07:26:32.831Z,4.08
2019-06-08T07:29:03.657Z,3.77
2019-06-08T07:31:34.313Z,3.85
2019-06-08T07:34:05.382Z,3.58
2019-06-08T07:36:35.907Z,3.40
2019-06-08T07:39:08.176Z,3.75
2019-06-08T07:41:39.448Z,3.62
2019-06-08T07:44:10.207Z,3.37
2019-06-08T07:46:40.898Z,3.85
2019-06-08T07:49:11.459Z,3.10
2019-06-08T07:51:57.820Z,3.52
2019-06-08T07:54:14.869Z,3.75
2019-06-08T07:56:46.247Z,3.20
2019-06-08T07:59:16.871Z,3.60
2019-06-08T08:01:47.784Z,4.28
2019-06-08T08:04:19.638Z,3.90
2019-06-08T08:06:50.402Z,3.55
2019-06-08T08:09:21.041Z,4.75
2019-06-08T08:11:52.862Z,4.40
2019-06-08T08:14:23.611Z,3.87
2019-06-08T08:16:55.199Z,3.92
2019-06-08T08:19:26.675Z,3.95
2019-06-08T08:22:03.178Z,3.87
2019-06-08T08:24:30.565Z,3.15
2019-06-08T08:27:03.598Z,3.35
2019-06-08T08:29:33.548Z,2.70
2019-06-08T08:32:04.706Z,2.52
2019-06-08T08:34:38.200Z,2.77
2019-06-08T08:37:09.619Z,2.65
2019-06-08T08:39:41.013Z,3.02
2019-06-08T08:42:13.426Z,3.00
2019-06-08T08:44:44.012Z,3.10
2019-06-08T08:47:14.704Z,3.20
2019-06-08T08:49:45.246Z,3.55
2019-06-08T08:52:17.494Z,4.15
2019-06-08T08:54:50.753Z,3.55
2019-06-08T08:57:21.131Z,2.98
2019-06-08T08:59:53.593Z,3.17
2019-06-08T09:02:24.132Z,3.12
2019-06-08T09:04:57.957Z,4.10
2019-06-08T09:07:27.949Z,3.50
2019-06-08T09:10:01.509Z,4.05
2019-06-08T09:12:31.209Z,4.00
2019-06-08T09:15:03.752Z,4.10
2019-06-08T09:17:34.454Z,4.25
2019-06-08T09:20:11.027Z,4.00
2019-06-08T09:22:52.460Z,4.22
2019-06-08T09:25:13.519Z,3.75
2019-06-08T09:27:43.155Z,3.60
2019-06-08T09:30:14.171Z,3.70
2019-06-08T09:32:44.842Z,3.80
2019-06-08T09:35:18.732Z,3.20
2019-06-08T09:37:48.735Z,4.33
2019-06-08T09:40:19.486Z,3.22
2019-06-08T09:42:57.234Z,3.20
2019-06-08T09:45:23.842Z,3.35
2019-06-08T09:47:55.423Z,3.58
2019-06-08T09:50:27.809Z,3.22
2019-06-08T09:53:14.942Z,3.50
2019-06-08T09:55:30.913Z,4.12
2019-06-08T09:58:05.030Z,3.60
2019-06-08T10:00:33.874Z,3.72
2019-06-08T10:03:06.500Z,4.10
2019-06-08T10:05:38.892Z,4.33
2019-06-08T10:08:09.972Z,4.10
2019-06-08T10:10:42.429Z,4.10
2019-06-08T10:13:12.904Z,4.55
2019-06-08T10:15:43.685Z,3.52
2019-06-08T10:18:17.527Z,5.03
2019-06-08T10:20:48.253Z,3.95
2019-06-08T10:23:30.835Z,3.30
2019-06-08T10:25:52.345Z,3.60
2019-06-08T10:28:23.013Z,3.58
2019-06-08T10:30:55.424Z,3.83
2019-06-08T10:33:28.195Z,3.20
2019-06-08T10:36:01.748Z,3.50
2019-06-08T10:38:31.252Z,3.77
2019-06-08T10:41:12.046Z,3.00
2019-06-08T10:43:38.275Z,3.30
2019-06-08T10:46:14.729Z,3.17
2019-06-08T10:48:40.710Z,3.33
2019-06-08T10:51:13.078Z,3.15
2019-06-08T10:53:48.385Z,3.10
2019-06-08T10:56:18.651Z,3.15
2019-06-08T10:58:49.776Z,2.83
2019-06-08T11:01:20.704Z,3.40
2019-06-08T11:03:53.131Z,2.87
2019-06-08T11:06:24.122Z,2.90
2019-06-08T11:08:54.881Z,2.58
2019-06-08T11:11:28.377Z,3.10
2019-06-08T11:14:00.055Z,2.80
2019-06-08T11:16:30.558Z,2.70
2019-06-08T11:19:03.037Z,2.60
2019-06-08T11:21:33.768Z,2.33
2019-06-08T11:24:13.267Z,2.55
2019-06-08T11:26:39.968Z,2.70
2019-06-08T11:29:12.223Z,2.67
2019-06-08T11:31:42.174Z,2.95
2019-06-08T11:34:12.921Z,2.65
2019-06-08T11:36:43.678Z,2.80
2019-06-08T11:39:15.195Z,3.05
2019-06-08T11:41:48.367Z,2.52
2019-06-08T11:44:19.310Z,2.95
2019-06-08T11:46:49.927Z,3.80
2019-06-08T11:49:20.705Z,3.37
2019-06-08T11:51:51.339Z,3.67
2019-06-08T11:54:35.454Z,3.83
2019-06-08T11:56:57.571Z,4.90
2019-06-08T11:59:29.633Z,4.58
2019-06-08T12:02:05.574Z,4.37
2019-06-08T12:04:38.395Z,4.60
2019-06-08T12:07:10.782Z,4.62
2019-06-08T12:09:41.267Z,3.85
2019-06-08T12:12:16.190Z,4.55
2019-06-08T12:14:44.106Z,4.50
2019-06-08T12:17:19.188Z,5.00
2019-06-08T12:19:47.662Z,4.08
2019-06-08T12:22:21.517Z,4.70
2019-06-08T12:25:01.927Z,4.28
2019-06-08T12:27:36.252Z,4.37
2019-06-08T12:30:11.256Z,4.67
2019-06-08T12:32:38.686Z,4.95
2019-06-08T12:35:12.122Z,6.60
2019-06-08T12:37:42.386Z,5.25
2019-06-08T12:40:14.553Z,5.58
2019-06-08T12:42:45.517Z,5.62
2019-06-08T12:45:20.002Z,6.08
2019-06-08T12:47:49.804Z,5.45
2019-06-08T12:50:20.554Z,6.03
2019-06-08T12:52:51.113Z,5.95
2019-06-08T12:55:24.862Z,5.55
2019-06-08T12:57:54.865Z,5.92
2019-06-08T13:00:28.078Z,5.72
2019-06-08T13:02:59.651Z,5.80
2019-06-08T13:05:30.385Z,6.85
2019-06-08T13:08:01.642Z,5.85
2019-06-08T13:10:32.177Z,5.60
2019-06-08T13:13:02.618Z,4.62
2019-06-08T13:15:33.179Z,6.05
2019-06-08T13:18:03.834Z,5.80
2019-06-08T13:20:34.706Z,5.83
2019-06-08T13:23:08.235Z,5.92
2019-06-08T13:25:43.012Z,4.95
2019-06-08T13:28:15.125Z,5.90
2019-06-08T13:30:42.980Z,6.37
2019-06-08T13:33:14.078Z,5.75
2019-06-08T13:35:44.886Z,5.58
2019-06-08T13:38:17.333Z,6.60
2019-06-08T13:40:48.549Z,5.80
2019-06-08T13:43:21.214Z,5.55
2019-06-08T13:45:52.813Z,6.33
2019-06-08T13:48:23.492Z,5.65
2019-06-08T13:50:55.204Z,5.67
2019-06-08T13:53:31.488Z,5.30
2019-06-08T13:55:59.137Z,5.60
2019-06-08T13:58:33.507Z,5.55
2019-06-08T14:01:02.735Z,5.67
2019-06-08T14:03:33.331Z,5.78
2019-06-08T14:06:03.964Z,5.87
2019-06-08T14:08:35.534Z,5.80
2019-06-08T14:11:08.152Z,5.75
2019-06-08T14:13:38.537Z,6.15
2019-06-08T14:16:11.537Z,5.70
2019-06-08T14:18:41.301Z,5.15
2019-06-08T14:21:12.364Z,5.05
2019-06-08T14:23:43.030Z,6.00
2019-06-08T14:26:13.598Z,5.03
2019-06-08T14:28:44.234Z,5.15
2019-06-08T14:31:14.917Z,5.97
2019-06-08T14:33:48.287Z,4.97
2019-06-08T14:36:22.424Z,5.00
2019-06-08T14:38:51.843Z,5.55
2019-06-08T14:41:24.522Z,5.20
2019-06-08T14:43:55.299Z,6.55
2019-06-08T14:46:28.627Z,5.28
2019-06-08T14:48:59.995Z,5.40
2019-06-08T14:51:48.900Z,5.70
2019-06-08T14:54:24.341Z,5.62
2019-06-08T14:56:54.045Z,5.40
2019-06-08T14:59:25.509Z,6.00
2019-06-08T15:01:56.053Z,6.20
2019-06-08T15:04:33.031Z,5.03
2019-06-08T15:06:58.840Z,4.20
2019-06-08T15:09:31.060Z,5.00
2019-06-08T15:12:01.688Z,6.45
2019-06-08T15:14:35.383Z,6.22
2019-06-08T15:17:05.591Z,5.92
2019-06-08T15:19:36.413Z,5.78
2019-06-08T15:22:08.821Z,6.20
2019-06-08T15:24:39.316Z,5.33
2019-06-08T15:27:09.978Z,5.15
2019-06-08T15:29:42.320Z,5.70
2019-06-08T15:32:12.978Z,4.87
2019-06-08T15:34:43.846Z,5.72
2019-06-08T15:37:15.126Z,5.03
2019-06-08T15:39:48.568Z,4.60
2019-06-08T15:42:18.227Z,4.78
2019-06-08T15:44:50.351Z,4.97
2019-06-08T15:47:22.074Z,5.03
2019-06-08T15:49:54.392Z,5.47
2019-06-08T15:52:26.409Z,5.15
2019-06-08T15:55:01.377Z,4.97
2019-06-08T15:57:35.565Z,5.72
2019-06-08T16:00:09.668Z,5.30
2019-06-08T16:02:37.567Z,5.30
2019-06-08T16:05:08.405Z,5.20
2019-06-08T16:07:38.988Z,5.65
2019-06-08T16:10:10.121Z,5.15
2019-06-08T16:12:42.625Z,5.47
2019-06-08T16:15:15.266Z,4.50
2019-06-08T16:17:51.125Z,5.37
2019-06-08T16:20:23.761Z,5.30
2019-06-08T16:22:54.423Z,5.87
2019-06-08T16:25:25.571Z,5.65
2019-06-08T16:27:56.462Z,5.28
2019-06-08T16:30:28.830Z,5.37
2019-06-08T16:32:59.869Z,5.97
2019-06-08T16:35:33.484Z,6.05
2019-06-08T16:38:04.276Z,5.35
2019-06-08T16:40:36.230Z,5.00
2019-06-08T16:43:07.837Z,5.75
2019-06-08T16:45:39.547Z,5.42
2019-06-08T16:48:10.472Z,5.30
2019-06-08T16:50:42.636Z,5.00
2019-06-08T16:53:13.406Z,5.10
2019-06-08T16:55:44.267Z,4.92
2019-06-08T16:58:15.553Z,5.42
2019-06-08T17:00:47.155Z,5.40
2019-06-08T17:03:17.742Z,5.28
2019-06-08T17:05:48.363Z,6.00
2019-06-08T17:08:19.152Z,5.45
2019-06-08T17:10:52.098Z,5.17
2019-06-08T17:13:24.488Z,5.10
2019-06-08T17:15:57.297Z,5.65
2019-06-08T17:18:29.939Z,5.40
2019-06-08T17:21:00.907Z,5.45
2019-06-08T17:23:32.390Z,5.55
2019-06-08T17:26:03.429Z,5.75
2019-06-08T17:28:35.062Z,5.03
2019-06-08T17:31:06.366Z,5.80
2019-06-08T17:33:37.277Z,5.35
2019-06-08T17:36:09.122Z,5.10
2019-06-08T17:38:39.963Z,5.17
2019-06-08T17:41:10.667Z,5.47
2019-06-08T17:43:42.474Z,5.15
2019-06-08T17:46:13.287Z,5.47
2019-06-08T17:48:44.020Z,5.42
2019-06-08T17:51:16.143Z,5.78
2019-06-08T17:53:46.750Z,4.92
2019-06-08T17:56:17.539Z,5.10
2019-06-08T17:58:49.518Z,4.37
2019-06-08T18:01:21.801Z,4.95
2019-06-08T18:03:52.656Z,5.05
2019-06-08T18:06:23.532Z,5.08
2019-06-08T18:08:54.056Z,4.08
2019-06-08T18:11:24.617Z,4.78
2019-06-08T18:13:55.164Z,4.42
2019-06-08T18:16:27.830Z,4.58
2019-06-08T18:18:58.248Z,5.22
2019-06-08T18:21:28.892Z,5.42
2019-06-08T18:23:59.788Z,5.58
2019-06-08T18:26:30.428Z,5.58
2019-06-08T18:29:01.360Z,4.60
2019-06-08T18:31:34.456Z,6.70
2019-06-08T18:34:11.644Z,5.30
2019-06-08T18:36:43.476Z,5.62
2019-06-08T18:39:14.038Z,6.10
2019-06-08T18:41:45.454Z,4.83
2019-06-08T18:44:17.416Z,5.70
2019-06-08T18:46:48.362Z,5.50
2019-06-08T18:49:19.209Z,5.20
2019-06-08T18:51:52.778Z,5.22
2019-06-08T18:54:27.254Z,5.47
2019-06-08T18:56:57.274Z,5.45
2019-06-08T18:59:28.673Z,5.58
2019-06-08T19:02:00.786Z,5.12
2019-06-08T19:04:31.353Z,5.95
2019-06-08T19:07:03.761Z,4.67
2019-06-08T19:09:37.519Z,4.62
2019-06-08T19:12:19.906Z,6.22
2019-06-08T19:14:52.347Z,5.60
2019-06-08T19:17:23.995Z,6.15
2019-06-08T19:19:57.801Z,4.87
2019-06-08T19:22:30.223Z,6.35
2019-06-08T19:25:00.340Z,5.70
2019-06-08T19:27:30.824Z,4.67
2019-06-08T19:30:01.595Z,5.65
2019-06-08T19:32:32.767Z,5.70
2019-06-08T19:35:03.246Z,5.78
2019-06-08T19:37:34.130Z,5.47
2019-06-08T19:40:07.442Z,6.25
2019-06-08T19:42:47.446Z,5.87
2019-06-08T19:45:10.476Z,4.87
2019-06-08T19:47:41.166Z,4.72
2019-06-08T19:50:12.357Z,5.25
2019-06-08T19:52:46.328Z,5.30
2019-06-08T19:55:18.145Z,4.95
2019-06-08T19:57:51.764Z,5.50
2019-06-08T20:00:22.402Z,5.78
2019-06-08T20:02:55.247Z,5.42
2019-06-08T20:05:28.553Z,5.33
2019-06-08T20:07:59.697Z,5.25
2019-06-08T20:10:30.300Z,5.20
2019-06-08T20:13:02.549Z,5.78
2019-06-08T20:15:33.084Z,5.95
2019-06-08T20:18:03.776Z,5.55
2019-06-08T20:20:34.398Z,5.40
2019-06-08T20:23:09.503Z,5.60
2019-06-08T20:25:38.193Z,5.90
2019-06-08T20:28:09.096Z,6.00
2019-06-08T20:30:42.279Z,5.67
2019-06-08T20:33:12.846Z,5.92
2019-06-08T20:35:45.605Z,6.33
2019-06-08T20:38:17.771Z,6.15
2019-06-08T20:40:50.167Z,5.30
2019-06-08T20:43:21.598Z,6.37
2019-06-08T20:46:29.373Z,6.25
2019-06-08T20:48:59.882Z,6.08
2019-06-08T20:51:38.278Z,5.58
2019-06-08T20:54:09.259Z,6.50
2019-06-08T20:56:40.586Z,5.83
2019-06-08T20:59:11.288Z,6.00
2019-06-08T21:01:43.703Z,6.08
2019-06-08T21:04:27.648Z,5.65
2019-06-08T21:06:59.208Z,6.58
2019-06-08T21:09:30.250Z,6.72
2019-06-08T21:12:00.844Z,5.70
2019-06-08T21:14:31.448Z,6.85
2019-06-08T21:17:02.235Z,6.00
2019-06-08T21:19:33.790Z,6.30
2019-06-08T21:22:04.463Z,6.85
2019-06-08T21:24:37.015Z,5.75
2019-06-08T21:27:08.329Z,6.67
2019-06-08T21:29:49.107Z,6.60
2019-06-08T21:32:13.011Z,6.08
2019-06-08T21:34:43.614Z,5.90
2019-06-08T21:37:14.295Z,6.12
2019-06-08T21:39:50.509Z,6.37
2019-06-08T21:42:21.319Z,5.97
2019-06-08T21:44:54.635Z,6.12
2019-06-08T21:47:27.152Z,5.50
2019-06-08T21:50:00.353Z,6.15
2019-06-08T21:52:31.838Z,6.20
2019-06-08T21:55:02.527Z,5.42
2019-06-08T21:57:33.177Z,6.33
2019-06-08T22:00:27.159Z,6.05
2019-06-08T22:02:42.408Z,5.35
2019-06-08T22:05:13.386Z,6.05
2019-06-08T22:07:43.955Z,6.03
2019-06-08T22:10:14.951Z,5.65
2019-06-08T22:12:48.314Z,5.80
2019-06-08T22:15:19.574Z,6.10
2019-06-08T22:17:51.993Z,6.37
2019-06-08T22:20:23.489Z,5.85
2019-06-08T22:22:55.118Z,5.78
2019-06-08T22:25:27.818Z,6.20
2019-06-08T22:28:00.962Z,5.97
2019-06-08T22:30:39.339Z,5.85
2019-06-08T22:33:05.744Z,5.83
2019-06-08T22:35:37.400Z,5.85
2019-06-08T22:38:08.738Z,5.53
2019-06-08T22:40:40.089Z,5.97
2019-06-08T22:43:10.586Z,6.08
2019-06-08T22:45:41.333Z,6.40
2019-06-08T22:48:12.255Z,6.67
2019-06-08T22:50:42.988Z,7.00
2019-06-08T22:53:13.577Z,5.75
2019-06-08T22:55:44.353Z,6.10
2019-06-08T22:58:14.926Z,6.33
2019-06-08T23:00:52.295Z,6.12
2019-06-08T23:03:19.806Z,5.83
2019-06-08T23:05:50.607Z,6.10
2019-06-08T23:08:22.009Z,6.30
2019-06-08T23:10:54.220Z,6.33
2019-06-08T23:13:24.762Z,6.40
2019-06-08T23:15:59.421Z,6.12
2019-06-08T23:18:27.846Z,6.45
2019-06-08T23:21:01.575Z,5.97
2019-06-08T23:23:31.475Z,6.28
2019-06-08T23:26:03.720Z,6.83
2019-06-08T23:28:37.921Z,6.50
2019-06-08T23:31:21.520Z,7.00
2019-06-08T23:33:43.156Z,6.78
2019-06-08T23:38:48.152Z,6.33
2019-06-08T23:41:19.030Z,6.87
2019-06-08T23:43:49.621Z,6.75
2019-06-08T23:46:20.366Z,6.15
2019-06-08T23:48:50.967Z,6.50
2019-06-08T23:51:21.624Z,5.75
2019-06-08T23:53:53.229Z,7.20
2019-06-08T23:56:23.920Z,6.22
2019-06-08T23:58:54.610Z,6.80
